createdAt,value
2022-11-25T00:01:45.990Z,3.34
2022-11-25T00:04:37.241Z,3.43
2022-11-25T00:07:25.923Z,3.31
2022-11-25T00:10:14.400Z,3.35
2022-11-25T00:13:03.819Z,3.56
2022-11-25T00:15:53.621Z,3.50
2022-11-25T00:18:45.288Z,3.47
2022-11-25T00:21:35.392Z,3.74
2022-11-25T00:24:23.841Z,3.76
2022-11-25T00:27:12.338Z,3.76
2022-11-25T00:30:00.799Z,3.81
2022-11-25T00:32:50.643Z,3.79
2022-11-25T00:35:39.107Z,3.78
2022-11-25T00:38:27.685Z,3.83
2022-11-25T00:41:33.637Z,3.83
2022-11-25T00:44:38.649Z,3.86
2022-11-25T00:47:29.451Z,3.89
2022-11-25T00:50:19.280Z,3.87
2022-11-25T00:53:07.705Z,4.00
2022-11-25T00:56:14.176Z,4.01
2022-11-25T00:59:02.602Z,4.05
2022-11-25T01:01:51.507Z,4.13
2022-11-25T01:04:40.246Z,4.10
2022-11-25T01:07:30.209Z,3.97
2022-11-25T01:10:18.733Z,3.97
2022-11-25T01:13:07.215Z,3.18
2022-11-25T01:15:55.926Z,3.00
2022-11-25T01:18:44.930Z,3.84
2022-11-25T01:21:34.947Z,3.86
2022-11-25T01:24:26.338Z,3.79
2022-11-25T01:27:14.819Z,3.81
2022-11-25T01:30:03.300Z,3.76
2022-11-25T01:32:51.758Z,3.94
2022-11-25T01:35:40.233Z,3.98
2022-11-25T01:38:28.681Z,4.01
2022-11-25T01:41:18.497Z,3.99
2022-11-25T01:44:10.621Z,3.97
2022-11-25T01:47:04.780Z,3.88
2022-11-25T01:49:58.199Z,4.09
2022-11-25T01:52:47.996Z,4.14
2022-11-25T01:55:37.903Z,4.12
2022-11-25T01:58:30.245Z,4.05
2022-11-25T02:01:18.781Z,4.01
2022-11-25T02:04:07.630Z,3.24
2022-11-25T02:06:59.227Z,3.92
2022-11-25T02:09:48.468Z,3.79
2022-11-25T02:12:38.508Z,3.84
2022-11-25T02:15:30.125Z,3.80
2022-11-25T02:18:18.790Z,3.74
2022-11-25T02:21:07.497Z,3.79
2022-11-25T02:24:02.472Z,3.84
2022-11-25T02:26:52.247Z,3.90
2022-11-25T02:29:41.185Z,4.03
2022-11-25T02:32:29.664Z,3.94
2022-11-25T02:35:36.458Z,3.85
2022-11-25T02:38:31.011Z,3.82
2022-11-25T02:41:22.293Z,3.87
2022-11-25T02:44:12.206Z,3.86
2022-11-25T02:47:00.701Z,3.83
2022-11-25T02:49:49.150Z,3.79
2022-11-25T02:52:37.623Z,3.69
2022-11-25T02:55:26.125Z,3.61
2022-11-25T02:58:15.098Z,3.31
2022-11-25T03:01:04.956Z,3.65
2022-11-25T03:03:53.533Z,3.77
2022-11-25T03:06:42.008Z,3.76
2022-11-25T03:09:30.507Z,3.77
2022-11-25T03:12:21.729Z,3.80
2022-11-25T03:15:10.801Z,3.80
2022-11-25T03:18:00.683Z,3.71
2022-11-25T03:20:53.384Z,3.59
2022-11-25T03:23:41.878Z,3.46
2022-11-25T03:26:30.379Z,3.38
2022-11-25T03:29:18.828Z,3.33
2022-11-25T03:32:09.721Z,3.49
2022-11-25T03:34:59.903Z,3.49
2022-11-25T03:37:48.508Z,2.58
2022-11-25T03:40:36.951Z,3.52
2022-11-25T03:43:25.386Z,3.54
2022-11-25T03:46:13.887Z,3.59
2022-11-25T03:49:02.408Z,3.58
2022-11-25T03:51:52.320Z,3.58
2022-11-25T03:54:40.767Z,3.57
2022-11-25T03:57:29.332Z,3.56
2022-11-25T04:00:18.077Z,3.43
2022-11-25T04:03:06.545Z,3.37
2022-11-25T04:05:55.139Z,3.34
2022-11-25T04:08:45.004Z,3.31
2022-11-25T04:11:47.333Z,3.24
2022-11-25T04:14:36.112Z,3.19
2022-11-25T04:17:24.761Z,3.12
2022-11-25T04:20:14.246Z,2.33
2022-11-25T04:23:02.741Z,3.07
2022-11-25T04:25:52.557Z,2.94
2022-11-25T04:28:41.006Z,3.01
2022-11-25T04:31:29.475Z,3.23
2022-11-25T04:34:17.923Z,3.10
2022-11-25T04:37:06.466Z,3.12
2022-11-25T04:39:54.986Z,2.80
2022-11-25T04:42:44.795Z,2.92
2022-11-25T04:45:51.527Z,2.97
2022-11-25T04:48:41.629Z,3.02
2022-11-25T04:51:30.085Z,3.04
2022-11-25T04:54:18.564Z,2.92
2022-11-25T04:57:07.083Z,2.84
2022-11-25T04:59:55.920Z,2.86
2022-11-25T05:02:44.413Z,2.95
2022-11-25T05:05:33.036Z,3.02
2022-11-25T05:08:21.446Z,3.03
2022-11-25T05:11:09.930Z,3.03
2022-11-25T05:13:58.419Z,2.90
2022-11-25T05:16:48.237Z,2.92
2022-11-25T05:19:36.785Z,2.87
2022-11-25T05:22:28.156Z,2.78
2022-11-25T05:25:17.237Z,2.77
2022-11-25T05:28:05.927Z,2.67
2022-11-25T05:30:54.448Z,2.45
2022-11-25T05:33:44.266Z,2.57
2022-11-25T05:36:33.017Z,2.55
2022-11-25T05:39:21.675Z,2.52
2022-11-25T05:42:10.115Z,2.43
2022-11-25T05:44:58.632Z,2.50
2022-11-25T05:47:47.083Z,2.44
2022-11-25T05:50:37.826Z,2.37
2022-11-25T05:53:26.288Z,2.17
2022-11-25T05:56:14.756Z,2.41
2022-11-25T05:59:04.578Z,2.45
2022-11-25T06:01:53.943Z,2.54
2022-11-25T06:04:42.438Z,2.58
2022-11-25T06:07:32.732Z,2.61
2022-11-25T06:10:21.503Z,2.75
2022-11-25T06:13:10.216Z,2.92
2022-11-25T06:16:02.282Z,2.89
2022-11-25T06:18:55.057Z,2.83
2022-11-25T06:21:43.528Z,2.81
2022-11-25T06:24:33.485Z,2.67
2022-11-25T06:27:22.112Z,2.87
2022-11-25T06:30:12.821Z,2.84
2022-11-25T06:33:01.268Z,2.79
2022-11-25T06:35:49.774Z,2.68
2022-11-25T06:38:38.211Z,2.79
2022-11-25T06:41:28.007Z,2.90
2022-11-25T06:44:16.521Z,2.87
2022-11-25T06:47:05.075Z,2.88
2022-11-25T06:49:53.501Z,2.83
2022-11-25T06:52:42.001Z,2.86
2022-11-25T06:55:30.466Z,2.71
2022-11-25T06:58:35.532Z,2.85
2022-11-25T07:01:26.583Z,2.86
2022-11-25T07:04:15.076Z,2.92
2022-11-25T07:07:03.772Z,3.08
2022-11-25T07:09:52.212Z,3.12
2022-11-25T07:12:40.712Z,3.07
2022-11-25T07:15:30.589Z,3.11
2022-11-25T07:18:19.088Z,3.22
2022-11-25T07:21:09.528Z,3.25
2022-11-25T07:24:00.077Z,3.49
2022-11-25T07:26:48.536Z,3.54
2022-11-25T07:29:54.560Z,3.63
2022-11-25T07:32:46.748Z,3.69
2022-11-25T07:35:35.238Z,3.74
2022-11-25T07:38:23.786Z,3.82
2022-11-25T07:41:14.292Z,3.86
2022-11-25T07:44:05.118Z,3.87
2022-11-25T07:46:53.669Z,3.88
2022-11-25T07:49:43.685Z,3.96
2022-11-25T07:52:32.148Z,3.94
2022-11-25T07:55:20.576Z,4.06
2022-11-25T07:58:09.062Z,3.97
2022-11-25T08:00:57.603Z,4.13
2022-11-25T08:03:47.704Z,4.27
2022-11-25T08:06:40.772Z,4.43
2022-11-25T08:09:29.339Z,4.53
2022-11-25T08:12:17.841Z,4.51
2022-11-25T08:15:07.113Z,4.54
2022-11-25T08:17:55.627Z,4.64
2022-11-25T08:20:44.300Z,4.63
2022-11-25T08:23:34.992Z,4.65
2022-11-25T08:26:25.741Z,4.72
2022-11-25T08:29:16.243Z,4.92
2022-11-25T08:32:10.285Z,4.88
2022-11-25T08:35:00.327Z,4.85
2022-11-25T08:37:48.897Z,5.15
2022-11-25T08:40:38.963Z,5.14
2022-11-25T08:43:29.545Z,5.03
2022-11-25T08:46:20.386Z,5.11
2022-11-25T08:49:09.997Z,5.25
2022-11-25T08:51:58.545Z,5.28
2022-11-25T08:54:47.329Z,5.36
2022-11-25T08:57:37.460Z,5.29
2022-11-25T09:00:26.063Z,5.36
2022-11-25T09:03:14.741Z,5.41
2022-11-25T09:06:04.420Z,5.36
2022-11-25T09:08:55.974Z,5.49
2022-11-25T09:11:44.621Z,5.58
2022-11-25T09:14:34.597Z,5.53
2022-11-25T09:17:23.088Z,5.58
2022-11-25T09:20:12.102Z,5.65
2022-11-25T09:23:01.400Z,5.63
2022-11-25T09:25:52.538Z,5.57
2022-11-25T09:28:41.010Z,5.65
2022-11-25T09:31:30.940Z,5.61
2022-11-25T09:34:19.506Z,5.61
2022-11-25T09:37:08.078Z,5.59
2022-11-25T09:39:56.921Z,5.67
2022-11-25T09:43:08.623Z,5.78
2022-11-25T09:46:19.300Z,5.76
2022-11-25T09:49:22.437Z,5.90
2022-11-25T09:52:16.708Z,5.82
2022-11-25T09:55:07.624Z,5.99
2022-11-25T09:58:03.783Z,6.01
2022-11-25T10:00:52.921Z,6.16
2022-11-25T10:03:44.391Z,5.60
2022-11-25T10:06:37.572Z,6.45
2022-11-25T10:09:27.590Z,6.67
2022-11-25T10:12:24.284Z,6.77
2022-11-25T10:15:18.816Z,6.87
2022-11-25T10:18:15.530Z,6.87
2022-11-25T10:21:05.452Z,7.48
2022-11-25T10:23:55.404Z,7.90
2022-11-25T10:26:52.090Z,7.81
2022-11-25T10:29:40.604Z,7.64
2022-11-25T10:32:36.070Z,7.54
2022-11-25T10:35:31.121Z,7.53
2022-11-25T10:38:23.669Z,7.29
2022-11-25T10:41:17.184Z,7.61
2022-11-25T10:44:07.332Z,7.42
2022-11-25T10:47:14.880Z,7.60
2022-11-25T10:50:17.538Z,7.29
2022-11-25T10:53:12.091Z,7.59
2022-11-25T10:56:03.523Z,7.65
2022-11-25T10:58:55.651Z,7.62
2022-11-25T11:01:44.233Z,7.59
2022-11-25T11:04:34.690Z,7.61
2022-11-25T11:07:23.852Z,7.64
2022-11-25T11:10:22.379Z,7.67
2022-11-25T11:13:22.892Z,7.61
2022-11-25T11:16:31.538Z,7.60
2022-11-25T11:19:24.402Z,7.71
2022-11-25T11:22:17.622Z,7.78
2022-11-25T11:25:07.761Z,7.82
2022-11-25T11:27:56.441Z,6.92
2022-11-25T11:30:54.880Z,7.81
2022-11-25T11:33:56.626Z,8.19
2022-11-25T11:36:56.930Z,7.79
2022-11-25T11:40:03.213Z,8.31
2022-11-25T11:43:05.113Z,8.34
2022-11-25T11:46:02.184Z,8.50
2022-11-25T11:49:01.232Z,8.43
2022-11-25T11:51:56.595Z,8.59
2022-11-25T11:54:47.117Z,8.60
2022-11-25T11:57:41.437Z,8.67
2022-11-25T12:00:33.717Z,8.70
2022-11-25T12:03:24.082Z,8.78
2022-11-25T12:06:14.532Z,8.84
2022-11-25T12:09:05.665Z,8.95
2022-11-25T12:11:58.212Z,8.78
2022-11-25T12:14:48.898Z,9.20
2022-11-25T12:17:42.659Z,9.18
2022-11-25T12:20:37.465Z,9.21
2022-11-25T12:23:36.134Z,9.31
2022-11-25T12:26:28.204Z,9.23
2022-11-25T12:29:21.616Z,9.32
2022-11-25T12:32:44.326Z,9.32
2022-11-25T12:35:41.611Z,9.32
2022-11-25T12:38:38.625Z,9.40
2022-11-25T12:41:30.827Z,9.64
2022-11-25T12:44:22.281Z,9.75
2022-11-25T12:47:12.342Z,9.94
2022-11-25T12:50:01.042Z,10.08
2022-11-25T12:52:55.679Z,10.12
2022-11-25T12:55:45.573Z,10.20
2022-11-25T12:58:46.814Z,10.13
2022-11-25T13:01:55.688Z,9.59
2022-11-25T13:05:18.486Z,10.17
2022-11-25T13:08:21.394Z,10.01
2022-11-25T13:11:26.278Z,10.29
2022-11-25T13:14:21.211Z,10.34
2022-11-25T13:17:11.588Z,10.31
2022-11-25T13:20:33.988Z,10.13
2022-11-25T13:23:27.733Z,10.16
2022-11-25T13:26:49.976Z,10.27
2022-11-25T13:30:00.273Z,10.32
2022-11-25T13:32:48.798Z,10.36
2022-11-25T13:35:50.554Z,10.33
2022-11-25T13:38:59.527Z,10.35
2022-11-25T13:42:00.614Z,10.35
2022-11-25T13:44:52.471Z,10.27
2022-11-25T13:47:49.528Z,10.23
2022-11-25T13:51:03.324Z,10.29
2022-11-25T13:53:52.752Z,10.24
2022-11-25T13:56:41.248Z,10.17
2022-11-25T13:59:39.948Z,9.82
2022-11-25T14:02:35.099Z,10.16
2022-11-25T14:05:53.975Z,10.14
2022-11-25T14:08:47.021Z,10.18
2022-11-25T14:11:45.057Z,10.22
2022-11-25T14:14:49.925Z,10.21
2022-11-25T14:18:14.149Z,10.18
2022-11-25T14:21:07.518Z,10.19
2022-11-25T14:24:06.233Z,10.32
2022-11-25T14:26:55.343Z,10.27
2022-11-25T14:29:49.605Z,10.26
2022-11-25T14:32:42.427Z,10.23
2022-11-25T14:35:33.965Z,10.10
2022-11-25T14:38:25.790Z,9.61
2022-11-25T14:41:18.220Z,10.19
2022-11-25T14:44:11.395Z,10.14
2022-11-25T14:47:05.365Z,10.18
2022-11-25T14:50:18.903Z,10.18
2022-11-25T14:53:07.542Z,10.16
2022-11-25T14:55:57.851Z,10.15
2022-11-25T14:58:48.017Z,10.14
2022-11-25T15:01:37.781Z,10.34
2022-11-25T15:04:27.977Z,10.42
2022-11-25T15:07:20.462Z,10.54
2022-11-25T15:10:37.862Z,10.35
2022-11-25T15:13:31.693Z,10.44
2022-11-25T15:16:21.862Z,10.38
2022-11-25T15:19:17.713Z,10.25
2022-11-25T15:22:22.349Z,10.18
2022-11-25T15:25:15.815Z,10.16
2022-11-25T15:28:04.345Z,10.06
2022-11-25T15:30:59.678Z,10.05
2022-11-25T15:33:48.742Z,10.06
2022-11-25T15:36:37.355Z,9.37
2022-11-25T15:39:29.422Z,9.99
2022-11-25T15:42:20.516Z,9.96
2022-11-25T15:45:11.429Z,9.93
2022-11-25T15:47:59.939Z,9.94
2022-11-25T15:50:48.481Z,9.88
2022-11-25T15:53:39.118Z,9.83
2022-11-25T15:56:29.282Z,9.78
2022-11-25T15:59:42.619Z,9.75
2022-11-25T16:02:40.013Z,9.74
2022-11-25T16:05:37.973Z,9.75
2022-11-25T16:08:32.575Z,9.85
2022-11-25T16:11:21.337Z,8.98
2022-11-25T16:14:26.893Z,9.87
2022-11-25T16:17:15.461Z,9.78
2022-11-25T16:20:04.251Z,9.64
2022-11-25T16:22:52.741Z,9.65
2022-11-25T16:25:41.393Z,9.61
2022-11-25T16:28:30.250Z,9.56
2022-11-25T16:31:20.567Z,9.52
2022-11-25T16:34:14.048Z,9.48
2022-11-25T16:37:02.553Z,9.43
2022-11-25T16:39:51.096Z,9.23
2022-11-25T16:42:39.816Z,9.36
2022-11-25T16:45:29.523Z,9.36
2022-11-25T16:48:21.904Z,9.34
2022-11-25T16:51:14.941Z,9.37
2022-11-25T16:54:04.543Z,9.44
2022-11-25T16:56:54.595Z,9.40
2022-11-25T16:59:44.032Z,9.33
2022-11-25T17:02:33.182Z,9.23
2022-11-25T17:05:24.732Z,8.99
2022-11-25T17:08:13.533Z,9.23
2022-11-25T17:11:02.091Z,9.21
2022-11-25T17:13:51.882Z,9.24
2022-11-25T17:16:42.751Z,9.17
2022-11-25T17:19:31.505Z,9.09
2022-11-25T17:22:23.131Z,9.16
2022-11-25T17:25:13.138Z,9.18
2022-11-25T17:28:01.859Z,9.08
2022-11-25T17:30:50.550Z,9.11
2022-11-25T17:33:42.244Z,9.02
2022-11-25T17:36:30.747Z,8.96
2022-11-25T17:39:20.635Z,9.01
2022-11-25T17:42:11.748Z,9.02
2022-11-25T17:45:01.015Z,9.10
2022-11-25T17:47:49.628Z,9.14
2022-11-25T17:50:38.065Z,9.23
2022-11-25T17:53:26.511Z,9.40
2022-11-25T17:56:20.385Z,9.41
2022-11-25T17:59:13.076Z,9.42
2022-11-25T18:02:01.670Z,9.38
2022-11-25T18:04:50.746Z,9.41
2022-11-25T18:07:39.267Z,9.43
2022-11-25T18:10:28.584Z,9.32
2022-11-25T18:13:18.840Z,9.28
2022-11-25T18:16:08.715Z,9.08
2022-11-25T18:18:57.258Z,9.17
2022-11-25T18:21:45.763Z,9.22
2022-11-25T18:24:34.221Z,9.14
2022-11-25T18:27:25.108Z,9.26
2022-11-25T18:30:20.386Z,9.39
2022-11-25T18:33:13.542Z,9.34
2022-11-25T18:36:02.055Z,9.44
2022-11-25T18:38:51.524Z,9.42
2022-11-25T18:41:40.304Z,9.50
2022-11-25T18:44:30.022Z,9.43
2022-11-25T18:47:19.935Z,9.37
2022-11-25T18:50:14.577Z,9.37
2022-11-25T18:53:03.167Z,9.30
2022-11-25T18:55:51.689Z,9.24
2022-11-25T18:58:40.716Z,9.04
2022-11-25T19:01:29.471Z,9.21
2022-11-25T19:04:19.420Z,9.22
2022-11-25T19:07:08.046Z,9.12
2022-11-25T19:09:56.563Z,9.04
2022-11-25T19:12:48.920Z,9.07
2022-11-25T19:15:37.600Z,9.04
2022-11-25T19:18:29.260Z,9.08
2022-11-25T19:21:21.111Z,9.01
2022-11-25T19:24:13.262Z,8.96
2022-11-25T19:27:02.075Z,8.94
2022-11-25T19:29:56.317Z,8.85
2022-11-25T19:32:48.081Z,8.82
2022-11-25T19:35:37.735Z,8.82
2022-11-25T19:38:27.599Z,8.83
2022-11-25T19:41:16.155Z,8.80
2022-11-25T19:44:04.681Z,8.81
2022-11-25T19:47:14.207Z,8.77
2022-11-25T19:50:02.439Z,8.71
2022-11-25T19:52:51.316Z,8.75
2022-11-25T19:55:41.253Z,8.78
2022-11-25T19:58:29.747Z,7.96
2022-11-25T20:01:18.857Z,8.76
2022-11-25T20:04:08.284Z,8.58
2022-11-25T20:06:56.934Z,8.24
2022-11-25T20:09:45.478Z,8.27
2022-11-25T20:12:35.465Z,8.90
2022-11-25T20:15:24.798Z,8.87
2022-11-25T20:18:18.141Z,8.79
2022-11-25T20:21:07.583Z,8.98
2022-11-25T20:23:56.211Z,8.99
2022-11-25T20:26:48.488Z,9.15
2022-11-25T20:29:38.344Z,9.09
2022-11-25T20:32:29.290Z,9.01
2022-11-25T20:35:18.427Z,9.06
2022-11-25T20:38:07.111Z,9.09
2022-11-25T20:40:57.538Z,9.08
2022-11-25T20:43:48.549Z,9.09
2022-11-25T20:46:38.347Z,9.10
2022-11-25T20:49:29.129Z,8.94
2022-11-25T20:52:22.239Z,9.08
2022-11-25T20:55:18.415Z,9.07
2022-11-25T20:58:18.535Z,8.99
2022-11-25T21:01:07.548Z,9.02
2022-11-25T21:03:57.475Z,8.95
2022-11-25T21:06:46.362Z,9.12
2022-11-25T21:09:36.184Z,9.05
2022-11-25T21:12:24.670Z,9.11
2022-11-25T21:15:15.061Z,9.09
2022-11-25T21:18:03.524Z,9.06
2022-11-25T21:20:55.507Z,9.03
2022-11-25T21:23:45.313Z,9.10
2022-11-25T21:26:33.954Z,9.06
2022-11-25T21:29:22.580Z,9.05
2022-11-25T21:32:20.733Z,9.11
2022-11-25T21:35:10.421Z,9.08
2022-11-25T21:38:03.358Z,8.94
2022-11-25T21:40:53.418Z,9.04
2022-11-25T21:43:44.177Z,9.09
2022-11-25T21:46:32.796Z,8.84
2022-11-25T21:49:21.398Z,9.08
2022-11-25T21:52:09.867Z,9.14
2022-11-25T21:55:00.439Z,9.15
2022-11-25T21:57:48.993Z,9.14
2022-11-25T22:00:37.587Z,9.17
2022-11-25T22:03:29.014Z,9.12
2022-11-25T22:06:20.220Z,9.14
2022-11-25T22:09:09.072Z,9.15
2022-11-25T22:11:59.041Z,9.21
2022-11-25T22:14:47.559Z,9.30
2022-11-25T22:17:36.080Z,9.35
2022-11-25T22:20:30.593Z,9.34
2022-11-25T22:23:19.744Z,9.41
2022-11-25T22:26:08.782Z,9.36
2022-11-25T22:28:59.875Z,9.36
2022-11-25T22:31:49.625Z,9.30
2022-11-25T22:34:38.314Z,9.30
2022-11-25T22:37:26.938Z,9.11
2022-11-25T22:40:16.613Z,9.08
2022-11-25T22:43:05.170Z,9.08
2022-11-25T22:45:55.584Z,9.03
2022-11-25T22:48:44.362Z,8.93
2022-11-25T22:51:34.165Z,8.92
2022-11-25T22:54:23.668Z,8.89
2022-11-25T22:57:12.304Z,8.81
2022-11-25T23:00:00.767Z,8.81
2022-11-25T23:02:51.423Z,8.73
2022-11-25T23:05:40.753Z,8.65
2022-11-25T23:08:31.592Z,8.59
2022-11-25T23:11:21.543Z,8.61
2022-11-25T23:14:10.008Z,8.71
2022-11-25T23:16:58.515Z,8.58
2022-11-25T23:19:48.792Z,8.59
2022-11-25T23:22:38.191Z,8.60
2022-11-25T23:25:26.777Z,8.55
2022-11-25T23:28:16.228Z,8.64
2022-11-25T23:31:04.806Z,8.71
2022-11-25T23:33:54.042Z,8.58
2022-11-25T23:36:46.732Z,8.50
2022-11-25T23:39:35.235Z,8.49
2022-11-25T23:42:23.756Z,8.53
2022-11-25T23:45:14.858Z,8.51
2022-11-25T23:48:04.792Z,8.42
2022-11-25T23:50:54.816Z,8.47
2022-11-25T23:53:44.994Z,8.54
2022-11-25T23:56:33.487Z,8.57
2022-11-25T23:59:22.010Z,8.53
